createdAt,value
2018-10-12T00:02:09.318Z,98975.23
2018-10-12T00:04:38.473Z,99010.33
2018-10-12T00:07:07.969Z,99019.57
2018-10-12T00:09:37.121Z,99027.33
2018-10-12T00:12:06.391Z,99023.77
2018-10-12T00:14:35.599Z,99027.72
2018-10-12T00:17:04.757Z,99034.21
2018-10-12T00:19:33.975Z,99028.28
2018-10-12T00:22:03.334Z,99027.20
2018-10-12T00:24:32.466Z,99033.08
2018-10-12T00:27:01.609Z,99035.28
2018-10-12T00:29:30.783Z,99033.72
2018-10-12T00:31:59.965Z,99036.39
2018-10-12T00:34:29.122Z,99038.11
2018-10-12T00:36:58.298Z,99038.23
2018-10-12T00:39:27.571Z,99041.02
2018-10-12T00:41:56.815Z,99044.91
2018-10-12T00:44:26.024Z,99035.67
2018-10-12T00:46:55.294Z,99031.80
2018-10-12T00:49:24.454Z,99036.13
2018-10-12T00:51:53.629Z,99033.30
2018-10-12T00:54:22.765Z,99035.02
2018-10-12T00:56:51.909Z,99034.08
2018-10-12T00:59:21.114Z,99040.23
2018-10-12T01:01:50.310Z,99039.20
2018-10-12T01:04:19.873Z,99044.28
2018-10-12T01:06:49.117Z,99045.86
2018-10-12T01:09:18.239Z,99039.45
2018-10-12T01:11:47.440Z,99031.41
2018-10-12T01:14:16.636Z,99039.88
2018-10-12T01:16:45.831Z,99022.65
2018-10-12T01:19:15.056Z,99032.89
2018-10-12T01:21:44.495Z,99039.48
2018-10-12T01:24:13.701Z,99036.30
2018-10-12T01:26:42.892Z,99035.12
2018-10-12T01:29:12.121Z,99042.47
2018-10-12T01:31:41.295Z,99044.17
2018-10-12T01:34:10.458Z,99046.44
2018-10-12T01:36:39.607Z,99050.33
2018-10-12T01:39:08.917Z,99053.20
2018-10-12T01:41:38.082Z,99048.03
2018-10-12T01:44:07.394Z,99038.02
2018-10-12T01:46:36.571Z,99058.39
2018-10-12T01:49:05.905Z,99053.55
2018-10-12T01:51:35.091Z,99059.34
2018-10-12T01:54:04.273Z,99059.91
2018-10-12T01:56:33.486Z,99058.88
2018-10-12T01:59:02.783Z,99059.91
2018-10-12T02:01:31.967Z,99063.20
2018-10-12T02:04:01.188Z,99067.39
2018-10-12T02:06:30.660Z,99066.22
2018-10-12T02:08:59.808Z,99074.30
2018-10-12T02:11:28.944Z,99074.55
2018-10-12T02:13:58.141Z,99083.42
2018-10-12T02:16:27.337Z,99085.48
2018-10-12T02:18:56.511Z,99078.77
2018-10-12T02:21:25.706Z,99080.49
2018-10-12T02:23:55.011Z,99087.78
2018-10-12T02:26:24.180Z,99084.76
2018-10-12T02:28:53.365Z,99083.37
2018-10-12T02:31:22.573Z,99085.45
2018-10-12T02:33:51.752Z,99094.16
2018-10-12T02:36:20.933Z,99104.81
2018-10-12T02:38:50.147Z,99102.27
2018-10-12T02:41:19.335Z,99109.95
2018-10-12T02:43:48.544Z,99112.85
2018-10-12T02:46:17.690Z,99119.78
2018-10-12T02:48:46.838Z,99121.87
2018-10-12T02:51:16.094Z,99115.97
2018-10-12T02:53:45.269Z,99114.84
2018-10-12T02:56:19.771Z,99112.11
2018-10-12T02:58:49.574Z,99122.19
2018-10-12T03:01:19.162Z,99121.17
2018-10-12T03:03:48.526Z,99134.86
2018-10-12T03:06:17.838Z,99133.67
2018-10-12T03:08:47.365Z,99137.56
2018-10-12T03:11:16.893Z,99132.10
2018-10-12T03:13:46.048Z,99142.38
2018-10-12T03:16:15.338Z,99147.63
2018-10-12T03:18:44.741Z,99145.71
2018-10-12T03:21:13.891Z,99153.90
2018-10-12T03:23:43.033Z,99155.77
2018-10-12T03:26:12.233Z,99153.55
2018-10-12T03:28:42.934Z,99154.13
2018-10-12T03:31:12.207Z,99165.75
2018-10-12T03:33:41.486Z,99165.95
2018-10-12T03:36:10.823Z,99177.10
2018-10-12T03:38:40.035Z,99175.19
2018-10-12T03:41:09.422Z,99180.44
2018-10-12T03:43:38.608Z,99190.77
2018-10-12T03:46:07.792Z,99189.44
2018-10-12T03:48:37.009Z,99193.42
2018-10-12T03:51:06.557Z,99192.91
2018-10-12T03:53:35.807Z,99192.84
2018-10-12T03:56:05.199Z,99195.73
2018-10-12T03:58:34.368Z,99197.58
2018-10-12T04:01:03.527Z,99196.38
2018-10-12T04:03:32.721Z,99202.74
2018-10-12T04:06:01.867Z,99199.77
2018-10-12T04:08:31.147Z,99210.53
2018-10-12T04:11:00.383Z,99207.30
2018-10-12T04:13:29.518Z,99210.97
2018-10-12T04:15:58.705Z,99209.05
2018-10-12T04:18:27.900Z,99221.53
2018-10-12T04:20:57.066Z,99217.78
2018-10-12T04:23:26.207Z,99218.20
2018-10-12T04:25:55.406Z,99221.61
2018-10-12T04:28:24.557Z,99225.28
2018-10-12T04:30:53.705Z,99225.28
2018-10-12T04:33:22.946Z,99227.44
2018-10-12T04:35:52.087Z,99234.08
2018-10-12T04:38:21.278Z,99231.93
2018-10-12T04:40:59.197Z,99239.32
2018-10-12T04:43:28.403Z,99242.41
2018-10-12T04:45:57.774Z,99248.16
2018-10-12T04:48:27.141Z,99250.34
2018-10-12T04:50:56.898Z,99254.17
2018-10-12T04:53:26.145Z,99258.27
2018-10-12T04:55:55.435Z,99253.62
2018-10-12T04:58:24.592Z,99258.11
2018-10-12T05:00:53.856Z,99263.03
2018-10-12T05:03:23.126Z,99269.39
2018-10-12T05:05:52.318Z,99271.80
2018-10-12T05:08:21.667Z,99276.30
2018-10-12T05:10:51.101Z,99290.39
2018-10-12T05:13:20.273Z,99282.84
2018-10-12T05:15:49.486Z,99293.76
2018-10-12T05:18:18.716Z,99291.02
2018-10-12T05:20:47.965Z,99304.80
2018-10-12T05:23:17.171Z,99299.80
2018-10-12T05:25:46.734Z,99313.17
2018-10-12T05:28:15.922Z,99314.58
2018-10-12T05:30:45.629Z,99326.43
2018-10-12T05:33:14.808Z,99328.27
2018-10-12T05:35:44.174Z,99326.94
2018-10-12T05:38:13.386Z,99334.40
2018-10-12T05:40:42.618Z,99338.98
2018-10-12T05:43:13.445Z,99337.82
2018-10-12T05:45:42.626Z,99341.70
2018-10-12T05:48:22.867Z,99345.26
2018-10-12T05:50:52.493Z,99356.34
2018-10-12T05:53:21.794Z,99354.47
2018-10-12T05:55:51.157Z,99362.42
2018-10-12T05:58:20.961Z,99358.80
2018-10-12T06:00:50.701Z,99355.86
2018-10-12T06:03:19.991Z,99360.91
2018-10-12T06:05:49.166Z,99365.80
2018-10-12T06:08:18.469Z,99374.96
2018-10-12T06:10:47.798Z,99375.19
2018-10-12T06:13:17.081Z,99379.03
2018-10-12T06:15:46.310Z,99392.52
2018-10-12T06:18:16.035Z,99391.20
2018-10-12T06:20:45.202Z,99393.91
2018-10-12T06:23:18.009Z,99396.53
2018-10-12T06:25:48.940Z,99395.48
2018-10-12T06:28:18.146Z,99403.42
2018-10-12T06:30:47.335Z,99407.96
2018-10-12T06:33:16.492Z,99406.38
2018-10-12T06:35:45.667Z,99413.07
2018-10-12T06:38:14.858Z,99425.36
2018-10-12T06:40:44.192Z,99419.31
2018-10-12T06:43:13.327Z,99429.34
2018-10-12T06:45:42.745Z,99419.80
2018-10-12T06:48:11.961Z,99426.75
2018-10-12T06:50:42.578Z,99425.31
2018-10-12T06:53:12.357Z,99421.17
2018-10-12T06:55:41.601Z,99427.05
2018-10-12T06:58:10.814Z,99418.77
2018-10-12T07:00:40.342Z,99426.08
2018-10-12T07:03:10.292Z,99434.25
2018-10-12T07:05:39.172Z,99426.05
2018-10-12T07:08:08.799Z,99432.00
2018-10-12T07:10:38.140Z,99434.96
2018-10-12T07:13:07.862Z,99442.97
2018-10-12T07:15:37.092Z,99434.95
2018-10-12T07:18:06.265Z,99440.09
2018-10-12T07:20:35.397Z,99438.81
2018-10-12T07:23:04.936Z,99446.55
2018-10-12T07:25:34.043Z,99441.46
2018-10-12T07:28:03.316Z,99445.20
2018-10-12T07:30:33.086Z,99450.34
2018-10-12T07:33:02.249Z,99443.61
2018-10-12T07:35:31.433Z,99456.45
2018-10-12T07:38:00.719Z,99455.83
2018-10-12T07:40:29.867Z,99454.63
2018-10-12T07:42:59.139Z,99451.33
2018-10-12T07:45:28.945Z,99449.22
2018-10-12T07:47:58.175Z,99447.72
2018-10-12T07:50:27.296Z,99447.86
2018-10-12T07:52:56.526Z,99456.29
2018-10-12T07:55:25.763Z,99453.97
2018-10-12T07:57:54.920Z,99459.29
2018-10-12T08:00:24.277Z,99462.70
2018-10-12T08:02:53.467Z,99461.85
2018-10-12T08:05:22.626Z,99468.44
2018-10-12T08:07:51.844Z,99466.03
2018-10-12T08:10:21.018Z,99464.61
2018-10-12T08:12:50.285Z,99460.12
2018-10-12T08:15:19.545Z,99471.83
2018-10-12T08:17:48.954Z,99470.50
2018-10-12T08:20:18.262Z,99464.03
2018-10-12T08:22:47.535Z,99465.03
2018-10-12T08:25:16.758Z,99465.09
2018-10-12T08:27:45.962Z,99469.41
2018-10-12T08:30:15.222Z,99472.39
2018-10-12T08:32:44.463Z,99473.86
2018-10-12T08:35:14.327Z,99472.63
2018-10-12T08:37:43.537Z,99472.14
2018-10-12T08:40:12.722Z,99472.20
2018-10-12T08:42:41.902Z,99475.45
2018-10-12T08:45:11.079Z,99483.34
2018-10-12T08:47:40.297Z,99475.59
2018-10-12T08:50:09.561Z,99480.17
2018-10-12T08:52:38.789Z,99482.80
2018-10-12T08:55:08.166Z,99484.45
2018-10-12T08:57:37.328Z,99484.98
2018-10-12T09:00:06.642Z,99487.61
2018-10-12T09:02:37.035Z,99483.58
2018-10-12T09:05:06.494Z,99490.55
2018-10-12T09:07:35.688Z,99495.03
2018-10-12T09:10:05.470Z,99491.74
2018-10-12T09:12:34.730Z,99487.27
2018-10-12T09:15:04.052Z,99483.41
2018-10-12T09:17:33.346Z,99481.13
2018-10-12T09:20:02.805Z,99476.38
2018-10-12T09:22:32.275Z,99481.18
2018-10-12T09:25:01.459Z,99482.75
2018-10-12T09:27:30.752Z,99486.55
2018-10-12T09:29:59.942Z,99490.39
2018-10-12T09:32:29.140Z,99490.92
2018-10-12T09:34:58.341Z,99489.17
2018-10-12T09:37:27.873Z,99491.50
2018-10-12T09:39:57.041Z,99498.56
2018-10-12T09:42:26.502Z,99491.09
2018-10-12T09:44:55.674Z,99497.92
2018-10-12T09:47:24.829Z,99492.57
2018-10-12T09:49:53.999Z,99497.73
2018-10-12T09:52:23.175Z,99493.84
2018-10-12T09:54:52.419Z,99490.98
2018-10-12T09:57:30.549Z,99494.00
2018-10-12T09:59:59.786Z,99493.66
2018-10-12T10:02:34.343Z,99488.42
2018-10-12T10:05:08.881Z,99488.88
2018-10-12T10:07:39.177Z,99491.30
2018-10-12T10:10:08.373Z,99490.42
2018-10-12T10:12:37.622Z,99501.64
2018-10-12T10:15:07.088Z,99488.91
2018-10-12T10:17:36.896Z,99491.59
2018-10-12T10:20:06.830Z,99490.20
2018-10-12T10:22:36.090Z,99483.09
2018-10-12T10:25:05.547Z,99491.05
2018-10-12T10:27:34.684Z,99479.05
2018-10-12T10:30:03.970Z,99484.56
2018-10-12T10:32:33.189Z,99483.12
2018-10-12T10:35:02.353Z,99483.28
2018-10-12T10:37:31.782Z,99479.76
2018-10-12T10:40:01.719Z,99474.09
2018-10-12T10:42:31.348Z,99471.82
2018-10-12T10:45:00.751Z,99472.57
2018-10-12T10:47:29.977Z,99473.58
2018-10-12T10:49:59.356Z,99487.92
2018-10-12T10:52:28.598Z,99482.00
2018-10-12T10:54:57.831Z,99482.11
2018-10-12T10:57:27.028Z,99481.70
2018-10-12T10:59:56.505Z,99480.63
2018-10-12T11:02:25.822Z,99479.03
2018-10-12T11:04:55.089Z,99475.58
2018-10-12T11:07:24.320Z,99474.34
2018-10-12T11:09:53.599Z,99474.22
2018-10-12T11:12:23.087Z,99464.62
2018-10-12T11:14:52.203Z,99469.88
2018-10-12T11:17:21.377Z,99468.91
2018-10-12T11:19:50.628Z,99468.44
2018-10-12T11:22:19.808Z,99459.97
2018-10-12T11:24:49.071Z,99447.64
2018-10-12T11:27:18.277Z,99445.41
2018-10-12T11:29:47.452Z,99449.81
2018-10-12T11:32:16.630Z,99447.59
2018-10-12T11:34:46.011Z,99445.14
2018-10-12T11:37:15.221Z,99440.92
2018-10-12T11:39:44.429Z,99441.05
2018-10-12T11:42:13.610Z,99439.80
2018-10-12T11:44:42.945Z,99433.05
2018-10-12T11:47:12.131Z,99438.44
2018-10-12T11:49:41.275Z,99437.63
2018-10-12T11:52:10.530Z,99438.22
2018-10-12T11:54:40.022Z,99435.83
2018-10-12T11:57:11.219Z,99433.89
2018-10-12T11:59:40.351Z,99431.56
2018-10-12T12:02:09.566Z,99431.38
2018-10-12T12:04:38.702Z,99419.08
2018-10-12T12:07:08.151Z,99423.55
2018-10-12T12:09:37.484Z,99416.91
2018-10-12T12:12:06.849Z,99421.16
2018-10-12T12:14:36.012Z,99420.05
2018-10-12T12:17:05.223Z,99420.36
2018-10-12T12:19:34.395Z,99421.97
2018-10-12T12:22:03.554Z,99422.92
2018-10-12T12:24:32.794Z,99421.33
2018-10-12T12:27:02.008Z,99419.97
2018-10-12T12:29:31.256Z,99414.16
2018-10-12T12:32:00.418Z,99418.45
2018-10-12T12:34:29.621Z,99415.97
2018-10-12T12:36:58.801Z,99417.77
2018-10-12T12:39:28.074Z,99413.42
2018-10-12T12:41:57.274Z,99413.83
2018-10-12T12:44:26.420Z,99416.64
2018-10-12T12:46:55.672Z,99407.30
2018-10-12T12:49:25.071Z,99412.80
2018-10-12T12:51:54.063Z,99418.63
2018-10-12T12:54:23.793Z,99412.22
2018-10-12T12:56:52.984Z,99411.35
2018-10-12T12:59:22.216Z,99415.03
2018-10-12T13:01:51.525Z,99415.83
2018-10-12T13:04:20.709Z,99416.00
2018-10-12T13:06:50.156Z,99413.52
2018-10-12T13:09:19.349Z,99411.81
2018-10-12T13:11:48.523Z,99413.10
2018-10-12T13:14:17.729Z,99416.81
2018-10-12T13:16:46.969Z,99418.73
2018-10-12T13:19:16.342Z,99411.16
2018-10-12T13:21:45.710Z,99421.41
2018-10-12T13:24:15.007Z,99423.93
2018-10-12T13:26:44.215Z,99416.28
2018-10-12T13:29:13.414Z,99414.19
2018-10-12T13:31:42.892Z,99420.43
2018-10-12T13:34:12.199Z,99421.80
2018-10-12T13:36:41.438Z,99414.90
2018-10-12T13:39:12.328Z,99417.07
2018-10-12T13:41:41.526Z,99416.23
2018-10-12T13:44:10.828Z,99414.05
2018-10-12T13:46:40.121Z,99414.34
2018-10-12T13:49:09.355Z,99425.28
2018-10-12T13:51:39.123Z,99422.45
2018-10-12T13:54:08.900Z,99416.38
2018-10-12T13:56:38.078Z,99410.52
2018-10-12T13:59:07.746Z,99414.05
2018-10-12T14:01:38.089Z,99421.82
2018-10-12T14:04:07.533Z,99414.94
2018-10-12T14:06:37.422Z,99414.72
2018-10-12T14:09:07.626Z,99412.63
2018-10-12T14:11:36.827Z,99411.84
2018-10-12T14:14:06.012Z,99406.66
2018-10-12T14:16:35.248Z,99418.25
2018-10-12T14:19:04.801Z,99408.23
2018-10-12T14:21:33.652Z,99411.50
2018-10-12T14:24:02.840Z,99413.27
2018-10-12T14:26:32.063Z,99411.58
2018-10-12T14:29:01.270Z,99407.39
2018-10-12T14:31:30.520Z,99405.80
2018-10-12T14:33:59.822Z,99402.08
2018-10-12T14:36:29.103Z,99404.99
2018-10-12T14:38:58.308Z,99399.84
2018-10-12T14:41:27.512Z,99396.88
2018-10-12T14:43:56.766Z,99395.62
2018-10-12T14:46:25.890Z,99391.55
2018-10-12T14:48:55.079Z,99403.19
2018-10-12T14:51:24.264Z,99401.95
2018-10-12T14:53:53.433Z,99400.97
2018-10-12T14:56:22.754Z,99391.67
2018-10-12T14:58:51.968Z,99390.30
2018-10-12T15:01:21.141Z,99397.91
2018-10-12T15:03:50.323Z,99399.52
2018-10-12T15:06:19.526Z,99394.48
2018-10-12T15:08:48.688Z,99394.16
2018-10-12T15:11:18.095Z,99388.61
2018-10-12T15:13:47.298Z,99390.63
2018-10-12T15:16:16.454Z,99389.61
2018-10-12T15:18:45.927Z,99386.75
2018-10-12T15:21:15.257Z,99388.66
2018-10-12T15:23:44.266Z,99398.80
2018-10-12T15:26:13.456Z,99396.92
2018-10-12T15:28:43.253Z,99397.94
2018-10-12T15:31:12.441Z,99399.34
2018-10-12T15:33:41.867Z,99398.16
2018-10-12T15:36:11.102Z,99403.86
2018-10-12T15:38:40.295Z,99402.56
2018-10-12T15:41:09.683Z,99402.82
2018-10-12T15:43:38.871Z,99399.73
2018-10-12T15:46:08.239Z,99402.88
2018-10-12T15:48:37.482Z,99405.78
2018-10-12T15:51:06.896Z,99406.59
2018-10-12T15:53:36.031Z,99409.22
2018-10-12T15:56:05.208Z,99410.31
2018-10-12T15:58:34.369Z,99414.63
2018-10-12T16:01:03.516Z,99411.16
2018-10-12T16:03:32.717Z,99419.72
2018-10-12T16:06:01.921Z,99421.22
2018-10-12T16:08:31.156Z,99418.28
2018-10-12T16:11:00.374Z,99418.28
2018-10-12T16:13:29.673Z,99426.73
2018-10-12T16:15:58.955Z,99429.80
2018-10-12T16:18:28.152Z,99430.89
2018-10-12T16:20:57.317Z,99428.77
2018-10-12T16:23:26.513Z,99431.84
2018-10-12T16:26:30.844Z,99433.70
2018-10-12T16:29:00.073Z,99431.34
2018-10-12T16:31:29.353Z,99434.11
2018-10-12T16:33:58.567Z,99441.30
2018-10-12T16:36:27.736Z,99449.56
2018-10-12T16:38:56.949Z,99445.92
2018-10-12T16:41:26.345Z,99449.14
2018-10-12T16:43:55.566Z,99456.31
2018-10-12T16:46:24.805Z,99458.13
2018-10-12T16:48:53.960Z,99460.06
2018-10-12T16:51:23.111Z,99460.41
2018-10-12T16:53:52.277Z,99462.58
2018-10-12T16:56:21.505Z,99458.07
2018-10-12T16:58:50.677Z,99468.74
2018-10-12T17:01:19.808Z,99471.45
2018-10-12T17:03:48.988Z,99472.84
2018-10-12T17:06:18.243Z,99471.80
2018-10-12T17:08:47.419Z,99476.28
2018-10-12T17:11:16.602Z,99476.28
2018-10-12T17:13:45.753Z,99483.20
2018-10-12T17:16:14.963Z,99488.17
2018-10-12T17:18:44.185Z,99488.38
2018-10-12T17:21:13.407Z,99485.45
2018-10-12T17:23:42.568Z,99493.72
2018-10-12T17:26:11.762Z,99489.80
2018-10-12T17:28:40.991Z,99492.92
2018-10-12T17:31:10.153Z,99494.64
2018-10-12T17:33:39.353Z,99495.30
2018-10-12T17:36:08.550Z,99491.09
2018-10-12T17:38:37.770Z,99497.66
2018-10-12T17:41:16.186Z,99504.45
2018-10-12T17:43:45.383Z,99502.66
2018-10-12T17:46:14.965Z,99498.66
2018-10-12T17:48:44.263Z,99492.99
2018-10-12T17:51:14.728Z,99486.52
2018-10-12T17:53:43.951Z,99494.63
2018-10-12T17:56:13.138Z,99483.88
2018-10-12T17:58:42.307Z,99499.53
2018-10-12T18:01:11.487Z,99496.83
2018-10-12T18:03:41.145Z,99497.39
2018-10-12T18:06:10.377Z,99497.67
2018-10-12T18:08:39.585Z,99499.86
2018-10-12T18:11:08.982Z,99501.19
2018-10-12T18:13:38.211Z,99504.19
2018-10-12T18:16:07.387Z,99507.95
2018-10-12T18:18:38.044Z,99511.94
2018-10-12T18:21:07.574Z,99514.35
2018-10-12T18:23:36.763Z,99514.06
2018-10-12T18:26:06.021Z,99513.52
2018-10-12T18:28:35.232Z,99517.27
2018-10-12T18:31:04.444Z,99517.78
2018-10-12T18:33:33.620Z,99522.05
2018-10-12T18:36:02.966Z,99523.10
2018-10-12T18:38:32.146Z,99520.64
2018-10-12T18:41:01.572Z,99519.48
2018-10-12T18:43:30.808Z,99521.06
2018-10-12T18:46:00.894Z,99522.30
2018-10-12T18:48:30.101Z,99516.05
2018-10-12T18:50:59.314Z,99520.83
2018-10-12T18:53:28.521Z,99520.27
2018-10-12T18:55:57.784Z,99528.33
2018-10-12T18:58:26.942Z,99523.22
2018-10-12T19:00:58.123Z,99523.46
2018-10-12T19:03:27.333Z,99533.17
2018-10-12T19:05:56.532Z,99538.75
2018-10-12T19:08:25.766Z,99534.37
2018-10-12T19:10:54.959Z,99538.08
2018-10-12T19:13:24.185Z,99538.88
2018-10-12T19:15:53.660Z,99539.16
2018-10-12T19:18:22.805Z,99542.40
2018-10-12T19:20:52.030Z,99541.02
2018-10-12T19:23:21.335Z,99539.56
2018-10-12T19:25:50.508Z,99546.43
2018-10-12T19:28:19.671Z,99543.92
2018-10-12T19:30:48.916Z,99546.30
2018-10-12T19:33:18.090Z,99540.63
2018-10-12T19:35:47.290Z,99545.98
2018-10-12T19:38:16.551Z,99554.36
2018-10-12T19:40:45.791Z,99553.56
2018-10-12T19:43:14.947Z,99558.92
2018-10-12T19:45:44.133Z,99558.80
2018-10-12T19:48:13.329Z,99557.03
2018-10-12T19:50:42.497Z,99553.69
2018-10-12T19:53:11.683Z,99558.19
2018-10-12T19:55:40.965Z,99558.34
2018-10-12T19:58:10.162Z,99554.70
2018-10-12T20:00:39.370Z,99555.01
2018-10-12T20:03:08.889Z,99558.74
2018-10-12T20:05:38.029Z,99554.69
2018-10-12T20:08:07.412Z,99555.38
2018-10-12T20:10:36.690Z,99557.77
2018-10-12T20:13:06.088Z,99565.52
2018-10-12T20:15:35.297Z,99556.09
2018-10-12T20:18:04.517Z,99556.63
2018-10-12T20:20:33.755Z,99554.95
2018-10-12T20:23:02.970Z,99564.31
2018-10-12T20:25:32.166Z,99563.16
2018-10-12T20:28:01.342Z,99556.32
2018-10-12T20:30:31.915Z,99566.98
2018-10-12T20:33:01.070Z,99567.47
2018-10-12T20:35:30.255Z,99561.02
2018-10-12T20:37:59.435Z,99566.87
2018-10-12T20:40:28.659Z,99566.20
2018-10-12T20:42:57.911Z,99565.80
2018-10-12T20:45:27.095Z,99570.05
2018-10-12T20:47:56.282Z,99572.39
2018-10-12T20:50:25.431Z,99568.85
2018-10-12T20:52:54.618Z,99576.07
2018-10-12T20:55:23.849Z,99570.59
2018-10-12T20:57:53.041Z,99568.61
2018-10-12T21:00:22.636Z,99570.05
2018-10-12T21:02:51.766Z,99568.81
2018-10-12T21:05:20.911Z,99570.36
2018-10-12T21:07:50.378Z,99571.88
2018-10-12T21:10:19.525Z,99575.64
2018-10-12T21:12:48.710Z,99579.39
2018-10-12T21:15:17.868Z,99576.58
2018-10-12T21:17:47.149Z,99581.49
2018-10-12T21:20:16.298Z,99584.13
2018-10-12T21:22:45.449Z,99590.72
2018-10-12T21:25:14.616Z,99590.89
2018-10-12T21:27:43.793Z,99592.22
2018-10-12T21:30:12.988Z,99580.38
2018-10-12T21:32:42.194Z,99592.13
2018-10-12T21:35:11.349Z,99590.11
2018-10-12T21:37:40.529Z,99577.97
2018-10-12T21:40:09.783Z,99577.89
2018-10-12T21:42:38.958Z,99571.28
2018-10-12T21:45:08.337Z,99577.80
2018-10-12T21:47:37.482Z,99578.77
2018-10-12T21:50:06.821Z,99570.14
2018-10-12T21:52:36.010Z,99575.95
2018-10-12T21:55:05.474Z,99568.55
2018-10-12T21:57:34.669Z,99575.64
2018-10-12T22:00:03.987Z,99574.30
2018-10-12T22:02:33.135Z,99572.09
2018-10-12T22:05:02.393Z,99571.79
2018-10-12T22:07:31.607Z,99570.97
2018-10-12T22:10:00.775Z,99571.22
2018-10-12T22:12:29.955Z,99572.39
2018-10-12T22:14:59.181Z,99570.58
2018-10-12T22:17:28.404Z,99571.05
2018-10-12T22:19:57.626Z,99574.48
2018-10-12T22:22:26.835Z,99580.86
2018-10-12T22:24:56.029Z,99577.42
2018-10-12T22:27:25.309Z,99578.44
2018-10-12T22:29:54.526Z,99583.84
2018-10-12T22:32:24.364Z,99584.36
2018-10-12T22:34:53.529Z,99587.55
2018-10-12T22:37:22.713Z,99575.77
2018-10-12T22:39:51.931Z,99575.67
2018-10-12T22:42:21.092Z,99589.80
2018-10-12T22:44:50.444Z,99576.89
2018-10-12T22:47:19.625Z,99576.32
2018-10-12T22:49:48.773Z,99578.76
2018-10-12T22:52:17.964Z,99581.41
2018-10-12T22:54:47.119Z,99582.89
2018-10-12T22:57:16.290Z,99586.08
2018-10-12T22:59:45.478Z,99580.98
2018-10-12T23:02:14.688Z,99584.47
2018-10-12T23:04:43.923Z,99583.59
2018-10-12T23:07:13.233Z,99578.06
2018-10-12T23:09:42.414Z,99581.13
2018-10-12T23:12:11.634Z,99582.09
2018-10-12T23:14:40.844Z,99578.78
2018-10-12T23:17:10.286Z,99578.28
2018-10-12T23:19:39.654Z,99573.62
2018-10-12T23:22:09.207Z,99578.55
2018-10-12T23:24:38.394Z,99573.94
2018-10-12T23:27:07.858Z,99575.00
2018-10-12T23:29:37.095Z,99581.16
2018-10-12T23:32:06.293Z,99574.94
2018-10-12T23:34:35.488Z,99576.78
2018-10-12T23:37:04.678Z,99570.22
2018-10-12T23:39:33.810Z,99577.34
2018-10-12T23:42:03.029Z,99575.28
2018-10-12T23:44:32.217Z,99584.31
2018-10-12T23:47:01.434Z,99584.94
2018-10-12T23:49:30.596Z,99589.21
2018-10-12T23:51:59.784Z,99589.45
2018-10-12T23:54:28.932Z,99588.94
2018-10-12T23:56:58.103Z,99588.80
2018-10-12T23:59:27.249Z,99585.52
